sensor_id;sensor_type;location;lat;lon;timestamp;temperature;humidity
19829;DHT22;10075;50.924;4.396;2023-02-15T00:01:06;6.30;99.90
19829;DHT22;10075;50.924;4.396;2023-02-15T00:03:34;6.20;99.90
19829;DHT22;10075;50.924;4.396;2023-02-15T00:06:01;6.20;99.90
19829;DHT22;10075;50.924;4.396;2023-02-15T00:08:29;6.10;99.90
19829;DHT22;10075;50.924;4.396;2023-02-15T00:11:06;6.10;99.90
19829;DHT22;10075;50.924;4.396;2023-02-15T00:13:34;6.10;99.90
19829;DHT22;10075;50.924;4.396;2023-02-15T00:16:02;6.10;99.90
19829;DHT22;10075;50.924;4.396;2023-02-15T00:18:29;6.00;99.90
19829;DHT22;10075;50.924;4.396;2023-02-15T00:20:57;6.00;99.90
19829;DHT22;10075;50.924;4.396;2023-02-15T00:23:26;6.00;99.90
19829;DHT22;10075;50.924;4.396;2023-02-15T00:26:03;5.90;99.90
19829;DHT22;10075;50.924;4.396;2023-02-15T00:28:30;6.00;99.90
19829;DHT22;10075;50.924;4.396;2023-02-15T00:31:03;6.00;99.90
19829;DHT22;10075;50.924;4.396;2023-02-15T00:33:30;6.00;99.90
19829;DHT22;10075;50.924;4.396;2023-02-15T00:35:57;5.90;99.90
19829;DHT22;10075;50.924;4.396;2023-02-15T00:38:25;5.80;99.90
19829;DHT22;10075;50.924;4.396;2023-02-15T00:40:54;5.70;99.90
19829;DHT22;10075;50.924;4.396;2023-02-15T00:43:22;5.60;99.90
19829;DHT22;10075;50.924;4.396;2023-02-15T00:45:49;5.60;99.90
19829;DHT22;10075;50.924;4.396;2023-02-15T00:48:16;5.60;99.90
19829;DHT22;10075;50.924;4.396;2023-02-15T00:50:45;5.70;99.90
19829;DHT22;10075;50.924;4.396;2023-02-15T00:53:12;5.70;99.90
19829;DHT22;10075;50.924;4.396;2023-02-15T00:55:39;5.70;99.90
19829;DHT22;10075;50.924;4.396;2023-02-15T00:58:09;5.70;99.90
19829;DHT22;10075;50.924;4.396;2023-02-15T01:00:36;5.60;99.90
19829;DHT22;10075;50.924;4.396;2023-02-15T01:03:04;5.50;99.90
19829;DHT22;10075;50.924;4.396;2023-02-15T01:05:31;5.50;99.90
19829;DHT22;10075;50.924;4.396;2023-02-15T01:07:58;5.40;99.90
19829;DHT22;10075;50.924;4.396;2023-02-15T01:10:26;5.40;99.90
19829;DHT22;10075;50.924;4.396;2023-02-15T01:12:54;5.30;99.90
19829;DHT22;10075;50.924;4.396;2023-02-15T01:15:22;5.40;99.90
19829;DHT22;10075;50.924;4.396;2023-02-15T01:17:50;5.30;99.90
19829;DHT22;10075;50.924;4.396;2023-02-15T01:20:19;5.20;99.90
19829;DHT22;10075;50.924;4.396;2023-02-15T01:22:46;5.20;99.90
19829;DHT22;10075;50.924;4.396;2023-02-15T01:25:15;5.30;99.90
19829;DHT22;10075;50.924;4.396;2023-02-15T01:27:42;5.30;99.90
19829;DHT22;10075;50.924;4.396;2023-02-15T01:30:11;5.30;99.90
19829;DHT22;10075;50.924;4.396;2023-02-15T01:32:39;5.20;99.90
19829;DHT22;10075;50.924;4.396;2023-02-15T01:35:07;5.20;99.90
19829;DHT22;10075;50.924;4.396;2023-02-15T01:37:35;5.20;99.90
19829;DHT22;10075;50.924;4.396;2023-02-15T01:40:02;5.20;99.90
19829;DHT22;10075;50.924;4.396;2023-02-15T01:42:30;5.20;99.90
19829;DHT22;10075;50.924;4.396;2023-02-15T01:44:58;5.20;99.90
19829;DHT22;10075;50.924;4.396;2023-02-15T01:47:32;5.20;99.90
19829;DHT22;10075;50.924;4.396;2023-02-15T01:50:09;5.20;99.90
19829;DHT22;10075;50.924;4.396;2023-02-15T01:52:38;5.10;99.90
19829;DHT22;10075;50.924;4.396;2023-02-15T01:55:08;4.90;99.90
19829;DHT22;10075;50.924;4.396;2023-02-15T01:57:36;4.80;99.90
19829;DHT22;10075;50.924;4.396;2023-02-15T02:00:05;4.80;99.90
19829;DHT22;10075;50.924;4.396;2023-02-15T02:02:33;4.70;99.90
19829;DHT22;10075;50.924;4.396;2023-02-15T02:05:02;4.60;99.90
19829;DHT22;10075;50.924;4.396;2023-02-15T02:07:37;4.60;99.90
19829;DHT22;10075;50.924;4.396;2023-02-15T02:10:06;4.70;99.90
19829;DHT22;10075;50.924;4.396;2023-02-15T02:12:34;4.60;99.90
19829;DHT22;10075;50.924;4.396;2023-02-15T02:15:03;4.70;99.90
19829;DHT22;10075;50.924;4.396;2023-02-15T02:17:41;4.70;99.90
19829;DHT22;10075;50.924;4.396;2023-02-15T02:20:17;4.70;99.90
19829;DHT22;10075;50.924;4.396;2023-02-15T02:23:18;4.60;99.90
19829;DHT22;10075;50.924;4.396;2023-02-15T02:29:13;4.50;99.90
19829;DHT22;10075;50.924;4.396;2023-02-15T02:32:09;4.50;99.90
19829;DHT22;10075;50.924;4.396;2023-02-15T02:34:44;4.50;99.90
19829;DHT22;10075;50.924;4.396;2023-02-15T02:37:21;4.40;99.90
19829;DHT22;10075;50.924;4.396;2023-02-15T02:39:55;4.40;99.90
19829;DHT22;10075;50.924;4.396;2023-02-15T02:42:29;4.30;99.90
19829;DHT22;10075;50.924;4.396;2023-02-15T02:45:02;4.30;99.90
19829;DHT22;10075;50.924;4.396;2023-02-15T02:47:33;4.30;99.90
19829;DHT22;10075;50.924;4.396;2023-02-15T02:50:07;4.30;99.90
19829;DHT22;10075;50.924;4.396;2023-02-15T02:52:37;4.20;99.90
19829;DHT22;10075;50.924;4.396;2023-02-15T02:55:08;4.10;99.90
19829;DHT22;10075;50.924;4.396;2023-02-15T02:57:41;4.10;99.90
19829;DHT22;10075;50.924;4.396;2023-02-15T03:00:11;4.10;99.90
19829;DHT22;10075;50.924;4.396;2023-02-15T03:02:42;4.10;99.90
19829;DHT22;10075;50.924;4.396;2023-02-15T03:05:15;4.10;99.90
19829;DHT22;10075;50.924;4.396;2023-02-15T03:07:47;4.20;99.90
19829;DHT22;10075;50.924;4.396;2023-02-15T03:10:16;4.30;99.90
19829;DHT22;10075;50.924;4.396;2023-02-15T03:12:44;4.30;99.90
19829;DHT22;10075;50.924;4.396;2023-02-15T03:15:16;4.30;99.90
19829;DHT22;10075;50.924;4.396;2023-02-15T03:17:48;4.30;99.90
19829;DHT22;10075;50.924;4.396;2023-02-15T03:20:20;4.30;99.90
19829;DHT22;10075;50.924;4.396;2023-02-15T03:22:54;4.30;99.90
19829;DHT22;10075;50.924;4.396;2023-02-15T03:25:25;4.30;99.90
19829;DHT22;10075;50.924;4.396;2023-02-15T03:27:55;4.30;99.90
19829;DHT22;10075;50.924;4.396;2023-02-15T03:30:25;4.40;99.90
19829;DHT22;10075;50.924;4.396;2023-02-15T03:32:56;4.40;99.90
19829;DHT22;10075;50.924;4.396;2023-02-15T03:35:30;4.40;99.90
19829;DHT22;10075;50.924;4.396;2023-02-15T03:38:00;4.40;99.90
19829;DHT22;10075;50.924;4.396;2023-02-15T03:40:30;4.30;99.90
19829;DHT22;10075;50.924;4.396;2023-02-15T03:43:21;4.20;99.90
19829;DHT22;10075;50.924;4.396;2023-02-15T03:45:58;4.10;99.90
19829;DHT22;10075;50.924;4.396;2023-02-15T03:48:29;4.10;99.90
19829;DHT22;10075;50.924;4.396;2023-02-15T03:51:01;4.00;99.90
19829;DHT22;10075;50.924;4.396;2023-02-15T03:53:48;4.00;99.90
19829;DHT22;10075;50.924;4.396;2023-02-15T03:56:16;3.90;99.90
19829;DHT22;10075;50.924;4.396;2023-02-15T03:58:43;3.80;99.90
19829;DHT22;10075;50.924;4.396;2023-02-15T04:01:33;3.80;99.90
19829;DHT22;10075;50.924;4.396;2023-02-15T04:04:21;3.90;99.90
19829;DHT22;10075;50.924;4.396;2023-02-15T04:06:50;3.80;99.90
19829;DHT22;10075;50.924;4.396;2023-02-15T04:09:17;3.90;99.90
19829;DHT22;10075;50.924;4.396;2023-02-15T04:12:01;3.90;99.90
19829;DHT22;10075;50.924;4.396;2023-02-15T04:14:28;3.80;99.90
19829;DHT22;10075;50.924;4.396;2023-02-15T04:17:12;3.70;99.90
19829;DHT22;10075;50.924;4.396;2023-02-15T04:19:39;3.70;99.90
19829;DHT22;10075;50.924;4.396;2023-02-15T04:22:25;3.80;99.90
19829;DHT22;10075;50.924;4.396;2023-02-15T04:25:09;3.80;99.90
19829;DHT22;10075;50.924;4.396;2023-02-15T04:27:37;3.90;99.90
19829;DHT22;10075;50.924;4.396;2023-02-15T04:30:06;4.00;99.90
19829;DHT22;10075;50.924;4.396;2023-02-15T04:32:33;4.10;99.90
19829;DHT22;10075;50.924;4.396;2023-02-15T04:35:01;4.20;99.90
19829;DHT22;10075;50.924;4.396;2023-02-15T04:37:29;4.30;99.90
19829;DHT22;10075;50.924;4.396;2023-02-15T04:39:56;4.30;99.90
19829;DHT22;10075;50.924;4.396;2023-02-15T04:42:24;4.40;99.90
19829;DHT22;10075;50.924;4.396;2023-02-15T04:44:51;4.60;99.90
19829;DHT22;10075;50.924;4.396;2023-02-15T04:47:18;4.60;99.90
19829;DHT22;10075;50.924;4.396;2023-02-15T04:49:45;4.60;99.90
19829;DHT22;10075;50.924;4.396;2023-02-15T04:52:12;4.60;99.90
19829;DHT22;10075;50.924;4.396;2023-02-15T04:54:40;4.70;99.90
19829;DHT22;10075;50.924;4.396;2023-02-15T04:57:07;4.70;99.90
19829;DHT22;10075;50.924;4.396;2023-02-15T04:59:34;4.80;99.90
19829;DHT22;10075;50.924;4.396;2023-02-15T05:02:01;4.70;99.90
19829;DHT22;10075;50.924;4.396;2023-02-15T05:04:28;4.60;99.90
19829;DHT22;10075;50.924;4.396;2023-02-15T05:06:55;4.60;99.90
19829;DHT22;10075;50.924;4.396;2023-02-15T05:09:22;4.60;99.90
19829;DHT22;10075;50.924;4.396;2023-02-15T05:11:50;4.70;99.90
19829;DHT22;10075;50.924;4.396;2023-02-15T05:14:17;4.70;99.90
19829;DHT22;10075;50.924;4.396;2023-02-15T05:16:44;4.80;99.90
19829;DHT22;10075;50.924;4.396;2023-02-15T05:19:11;4.80;99.90
19829;DHT22;10075;50.924;4.396;2023-02-15T05:21:38;4.90;99.90
19829;DHT22;10075;50.924;4.396;2023-02-15T05:24:05;4.80;99.90
19829;DHT22;10075;50.924;4.396;2023-02-15T05:26:55;4.70;99.90
19829;DHT22;10075;50.924;4.396;2023-02-15T05:29:40;4.50;99.90
19829;DHT22;10075;50.924;4.396;2023-02-15T05:32:07;4.40;99.90
19829;DHT22;10075;50.924;4.396;2023-02-15T05:34:34;4.20;99.90
19829;DHT22;10075;50.924;4.396;2023-02-15T05:37:00;4.10;99.90
19829;DHT22;10075;50.924;4.396;2023-02-15T05:39:27;4.00;99.90
19829;DHT22;10075;50.924;4.396;2023-02-15T05:41:58;3.90;99.90
19829;DHT22;10075;50.924;4.396;2023-02-15T05:44:25;3.80;99.90
19829;DHT22;10075;50.924;4.396;2023-02-15T05:46:52;3.80;99.90
19829;DHT22;10075;50.924;4.396;2023-02-15T05:49:19;3.80;99.90
19829;DHT22;10075;50.924;4.396;2023-02-15T05:51:46;3.80;99.90
19829;DHT22;10075;50.924;4.396;2023-02-15T05:54:13;3.80;99.90
19829;DHT22;10075;50.924;4.396;2023-02-15T05:56:40;3.90;99.90
19829;DHT22;10075;50.924;4.396;2023-02-15T05:59:09;4.00;99.90
19829;DHT22;10075;50.924;4.396;2023-02-15T06:01:36;3.90;99.90
19829;DHT22;10075;50.924;4.396;2023-02-15T06:04:03;3.90;99.90
19829;DHT22;10075;50.924;4.396;2023-02-15T06:06:30;3.90;99.90
19829;DHT22;10075;50.924;4.396;2023-02-15T06:08:56;4.00;99.90
19829;DHT22;10075;50.924;4.396;2023-02-15T06:11:23;4.10;99.90
19829;DHT22;10075;50.924;4.396;2023-02-15T06:13:50;4.10;99.90
19829;DHT22;10075;50.924;4.396;2023-02-15T06:16:19;4.10;99.90
19829;DHT22;10075;50.924;4.396;2023-02-15T06:18:46;4.00;99.90
19829;DHT22;10075;50.924;4.396;2023-02-15T06:21:13;4.00;99.90
19829;DHT22;10075;50.924;4.396;2023-02-15T06:23:39;3.90;99.90
19829;DHT22;10075;50.924;4.396;2023-02-15T06:26:07;3.90;99.90
19829;DHT22;10075;50.924;4.396;2023-02-15T06:28:33;3.80;99.90
19829;DHT22;10075;50.924;4.396;2023-02-15T06:31:00;3.90;99.90
19829;DHT22;10075;50.924;4.396;2023-02-15T06:33:29;4.00;99.90
19829;DHT22;10075;50.924;4.396;2023-02-15T06:35:59;4.10;99.90
19829;DHT22;10075;50.924;4.396;2023-02-15T06:38:27;4.20;99.90
19829;DHT22;10075;50.924;4.396;2023-02-15T06:40:54;4.20;99.90
19829;DHT22;10075;50.924;4.396;2023-02-15T06:43:21;4.20;99.90
19829;DHT22;10075;50.924;4.396;2023-02-15T06:45:48;4.20;99.90
19829;DHT22;10075;50.924;4.396;2023-02-15T06:48:15;4.20;99.90
19829;DHT22;10075;50.924;4.396;2023-02-15T06:50:43;4.20;99.90
19829;DHT22;10075;50.924;4.396;2023-02-15T06:53:10;4.20;99.90
19829;DHT22;10075;50.924;4.396;2023-02-15T06:55:37;4.20;99.90
19829;DHT22;10075;50.924;4.396;2023-02-15T06:58:04;4.30;99.90
19829;DHT22;10075;50.924;4.396;2023-02-15T07:00:31;4.20;99.90
19829;DHT22;10075;50.924;4.396;2023-02-15T07:02:58;4.30;99.90
19829;DHT22;10075;50.924;4.396;2023-02-15T07:05:26;4.30;99.90
19829;DHT22;10075;50.924;4.396;2023-02-15T07:07:57;4.20;99.90
19829;DHT22;10075;50.924;4.396;2023-02-15T07:10:25;4.30;99.90
19829;DHT22;10075;50.924;4.396;2023-02-15T07:12:52;4.30;99.90
19829;DHT22;10075;50.924;4.396;2023-02-15T07:15:18;4.30;99.90
19829;DHT22;10075;50.924;4.396;2023-02-15T07:17:47;4.30;99.90
19829;DHT22;10075;50.924;4.396;2023-02-15T07:20:16;4.40;99.90
19829;DHT22;10075;50.924;4.396;2023-02-15T07:22:44;4.40;99.90
19829;DHT22;10075;50.924;4.396;2023-02-15T07:25:13;4.50;99.90
19829;DHT22;10075;50.924;4.396;2023-02-15T07:27:40;4.60;99.90
19829;DHT22;10075;50.924;4.396;2023-02-15T07:30:08;4.70;99.90
19829;DHT22;10075;50.924;4.396;2023-02-15T07:32:35;4.80;99.90
19829;DHT22;10075;50.924;4.396;2023-02-15T07:35:23;4.90;99.90
19829;DHT22;10075;50.924;4.396;2023-02-15T07:37:49;4.90;99.90
19829;DHT22;10075;50.924;4.396;2023-02-15T07:40:20;5.00;99.90
19829;DHT22;10075;50.924;4.396;2023-02-15T07:42:49;5.00;99.90
19829;DHT22;10075;50.924;4.396;2023-02-15T07:45:18;5.10;99.90
19829;DHT22;10075;50.924;4.396;2023-02-15T07:47:45;5.10;99.90
19829;DHT22;10075;50.924;4.396;2023-02-15T07:50:13;5.20;99.90
19829;DHT22;10075;50.924;4.396;2023-02-15T07:52:39;5.20;99.90
19829;DHT22;10075;50.924;4.396;2023-02-15T07:55:07;5.30;99.90
19829;DHT22;10075;50.924;4.396;2023-02-15T07:57:35;5.40;99.90
19829;DHT22;10075;50.924;4.396;2023-02-15T08:00:03;5.40;99.90
19829;DHT22;10075;50.924;4.396;2023-02-15T08:02:30;5.50;99.90
19829;DHT22;10075;50.924;4.396;2023-02-15T08:04:57;5.50;99.90
19829;DHT22;10075;50.924;4.396;2023-02-15T08:07:24;5.60;99.90
19829;DHT22;10075;50.924;4.396;2023-02-15T08:09:51;5.60;99.90
19829;DHT22;10075;50.924;4.396;2023-02-15T08:12:19;5.70;99.90
19829;DHT22;10075;50.924;4.396;2023-02-15T08:14:47;5.70;99.90
19829;DHT22;10075;50.924;4.396;2023-02-15T08:17:14;5.80;99.90
19829;DHT22;10075;50.924;4.396;2023-02-15T08:19:41;5.80;99.90
19829;DHT22;10075;50.924;4.396;2023-02-15T08:22:12;5.90;99.90
19829;DHT22;10075;50.924;4.396;2023-02-15T08:24:40;6.00;99.90
19829;DHT22;10075;50.924;4.396;2023-02-15T08:27:09;6.10;99.90
19829;DHT22;10075;50.924;4.396;2023-02-15T08:29:37;6.20;99.90
19829;DHT22;10075;50.924;4.396;2023-02-15T08:32:08;6.30;99.90
19829;DHT22;10075;50.924;4.396;2023-02-15T08:34:37;6.40;99.90
19829;DHT22;10075;50.924;4.396;2023-02-15T08:37:05;6.50;99.90
19829;DHT22;10075;50.924;4.396;2023-02-15T08:39:32;6.60;99.90
19829;DHT22;10075;50.924;4.396;2023-02-15T08:41:59;6.80;99.90
19829;DHT22;10075;50.924;4.396;2023-02-15T08:44:26;6.80;99.90
19829;DHT22;10075;50.924;4.396;2023-02-15T08:46:53;7.00;99.90
19829;DHT22;10075;50.924;4.396;2023-02-15T08:49:24;7.20;99.90
19829;DHT22;10075;50.924;4.396;2023-02-15T08:51:51;7.40;99.90
19829;DHT22;10075;50.924;4.396;2023-02-15T08:54:19;7.50;99.90
19829;DHT22;10075;50.924;4.396;2023-02-15T08:56:47;7.60;99.90
19829;DHT22;10075;50.924;4.396;2023-02-15T08:59:16;7.70;99.90
19829;DHT22;10075;50.924;4.396;2023-02-15T09:01:44;7.90;99.90
19829;DHT22;10075;50.924;4.396;2023-02-15T09:04:12;8.20;99.90
19829;DHT22;10075;50.924;4.396;2023-02-15T09:06:43;8.30;99.90
19829;DHT22;10075;50.924;4.396;2023-02-15T09:09:11;8.50;99.90
19829;DHT22;10075;50.924;4.396;2023-02-15T09:11:40;8.60;99.90
19829;DHT22;10075;50.924;4.396;2023-02-15T09:14:10;8.80;99.90
19829;DHT22;10075;50.924;4.396;2023-02-15T09:16:39;9.00;99.90
19829;DHT22;10075;50.924;4.396;2023-02-15T09:19:07;9.10;99.90
19829;DHT22;10075;50.924;4.396;2023-02-15T09:21:36;9.30;99.90
19829;DHT22;10075;50.924;4.396;2023-02-15T09:24:07;9.30;99.90
19829;DHT22;10075;50.924;4.396;2023-02-15T09:26:37;9.40;99.90
19829;DHT22;10075;50.924;4.396;2023-02-15T09:29:04;9.50;99.90
19829;DHT22;10075;50.924;4.396;2023-02-15T09:31:32;9.60;99.90
19829;DHT22;10075;50.924;4.396;2023-02-15T09:34:00;9.70;99.90
19829;DHT22;10075;50.924;4.396;2023-02-15T09:36:30;9.80;99.90
19829;DHT22;10075;50.924;4.396;2023-02-15T09:38:59;9.90;99.90
19829;DHT22;10075;50.924;4.396;2023-02-15T09:41:50;9.90;99.90
19829;DHT22;10075;50.924;4.396;2023-02-15T09:44:28;10.00;99.90
19829;DHT22;10075;50.924;4.396;2023-02-15T09:47:16;10.10;99.90
19829;DHT22;10075;50.924;4.396;2023-02-15T09:49:53;10.20;99.90
19829;DHT22;10075;50.924;4.396;2023-02-15T09:52:39;10.20;99.90
19829;DHT22;10075;50.924;4.396;2023-02-15T09:55:24;10.30;99.90
19829;DHT22;10075;50.924;4.396;2023-02-15T09:58:05;10.30;99.90
19829;DHT22;10075;50.924;4.396;2023-02-15T10:00:40;10.30;99.90
19829;DHT22;10075;50.924;4.396;2023-02-15T10:03:23;10.30;99.90
19829;DHT22;10075;50.924;4.396;2023-02-15T10:06:05;10.20;99.90
19829;DHT22;10075;50.924;4.396;2023-02-15T10:08:53;10.30;99.90
19829;DHT22;10075;50.924;4.396;2023-02-15T10:11:31;10.40;99.90
19829;DHT22;10075;50.924;4.396;2023-02-15T10:14:23;10.40;99.90
19829;DHT22;10075;50.924;4.396;2023-02-15T10:16:59;10.50;99.90
19829;DHT22;10075;50.924;4.396;2023-02-15T10:19:37;10.70;99.90
19829;DHT22;10075;50.924;4.396;2023-02-15T10:22:19;10.70;99.90
19829;DHT22;10075;50.924;4.396;2023-02-15T10:25:10;10.90;99.90
19829;DHT22;10075;50.924;4.396;2023-02-15T10:27:45;11.00;99.90
19829;DHT22;10075;50.924;4.396;2023-02-15T10:30:15;11.00;99.90
19829;DHT22;10075;50.924;4.396;2023-02-15T10:32:52;11.00;99.90
19829;DHT22;10075;50.924;4.396;2023-02-15T10:35:24;11.10;99.90
19829;DHT22;10075;50.924;4.396;2023-02-15T10:38:20;11.10;99.90
19829;DHT22;10075;50.924;4.396;2023-02-15T10:41:00;11.20;99.90
19829;DHT22;10075;50.924;4.396;2023-02-15T10:43:46;11.40;99.90
19829;DHT22;10075;50.924;4.396;2023-02-15T10:46:29;11.40;99.90
19829;DHT22;10075;50.924;4.396;2023-02-15T10:49:14;11.50;99.90
19829;DHT22;10075;50.924;4.396;2023-02-15T10:51:53;11.50;99.90
19829;DHT22;10075;50.924;4.396;2023-02-15T10:54:32;11.50;99.90
19829;DHT22;10075;50.924;4.396;2023-02-15T10:57:06;11.60;99.90
19829;DHT22;10075;50.924;4.396;2023-02-15T10:59:45;11.90;99.90
19829;DHT22;10075;50.924;4.396;2023-02-15T11:02:20;11.80;99.90
19829;DHT22;10075;50.924;4.396;2023-02-15T11:04:56;11.70;99.90
19829;DHT22;10075;50.924;4.396;2023-02-15T11:07:27;11.70;99.90
19829;DHT22;10075;50.924;4.396;2023-02-15T11:10:07;11.80;99.90
19829;DHT22;10075;50.924;4.396;2023-02-15T11:12:41;11.90;99.90
19829;DHT22;10075;50.924;4.396;2023-02-15T11:15:16;12.00;99.90
19829;DHT22;10075;50.924;4.396;2023-02-15T11:17:50;12.10;99.90
19829;DHT22;10075;50.924;4.396;2023-02-15T11:20:24;12.40;99.90
19829;DHT22;10075;50.924;4.396;2023-02-15T11:22:54;12.50;99.90
19829;DHT22;10075;50.924;4.396;2023-02-15T11:25:25;12.20;99.90
19829;DHT22;10075;50.924;4.396;2023-02-15T11:27:53;12.30;99.90
19829;DHT22;10075;50.924;4.396;2023-02-15T11:30:23;12.40;99.90
19829;DHT22;10075;50.924;4.396;2023-02-15T11:32:54;12.60;99.90
19829;DHT22;10075;50.924;4.396;2023-02-15T11:35:27;12.60;99.90
19829;DHT22;10075;50.924;4.396;2023-02-15T11:38:03;12.70;99.90
19829;DHT22;10075;50.924;4.396;2023-02-15T11:40:35;12.80;99.90
19829;DHT22;10075;50.924;4.396;2023-02-15T11:43:06;12.80;99.90
19829;DHT22;10075;50.924;4.396;2023-02-15T11:45:34;12.90;99.90
19829;DHT22;10075;50.924;4.396;2023-02-15T11:48:09;13.00;99.90
19829;DHT22;10075;50.924;4.396;2023-02-15T11:50:37;13.20;99.90
19829;DHT22;10075;50.924;4.396;2023-02-15T11:53:09;13.40;99.90
19829;DHT22;10075;50.924;4.396;2023-02-15T11:55:38;13.40;99.90
19829;DHT22;10075;50.924;4.396;2023-02-15T11:58:14;13.60;99.90
19829;DHT22;10075;50.924;4.396;2023-02-15T12:00:45;13.60;99.90
19829;DHT22;10075;50.924;4.396;2023-02-15T12:03:17;13.50;99.90
19829;DHT22;10075;50.924;4.396;2023-02-15T12:05:47;13.50;99.90
19829;DHT22;10075;50.924;4.396;2023-02-15T12:08:18;13.60;99.90
19829;DHT22;10075;50.924;4.396;2023-02-15T12:10:58;13.40;99.90
19829;DHT22;10075;50.924;4.396;2023-02-15T12:13:27;13.50;99.90
19829;DHT22;10075;50.924;4.396;2023-02-15T12:15:56;13.50;99.90
19829;DHT22;10075;50.924;4.396;2023-02-15T12:18:35;13.40;99.90
19829;DHT22;10075;50.924;4.396;2023-02-15T12:21:06;13.60;99.90
19829;DHT22;10075;50.924;4.396;2023-02-15T12:23:34;13.70;99.90
19829;DHT22;10075;50.924;4.396;2023-02-15T12:26:07;13.60;99.90
19829;DHT22;10075;50.924;4.396;2023-02-15T12:28:35;13.50;99.90
19829;DHT22;10075;50.924;4.396;2023-02-15T12:31:07;13.40;99.90
19829;DHT22;10075;50.924;4.396;2023-02-15T12:33:39;13.60;99.90
19829;DHT22;10075;50.924;4.396;2023-02-15T12:36:14;13.60;99.90
19829;DHT22;10075;50.924;4.396;2023-02-15T12:38:43;13.50;99.90
19829;DHT22;10075;50.924;4.396;2023-02-15T12:41:28;13.50;99.90
19829;DHT22;10075;50.924;4.396;2023-02-15T12:44:04;13.60;99.90
19829;DHT22;10075;50.924;4.396;2023-02-15T12:46:32;13.60;99.90
19829;DHT22;10075;50.924;4.396;2023-02-15T12:49:11;13.70;99.90
19829;DHT22;10075;50.924;4.396;2023-02-15T12:51:46;13.70;99.90
19829;DHT22;10075;50.924;4.396;2023-02-15T12:54:40;13.90;99.90
19829;DHT22;10075;50.924;4.396;2023-02-15T12:57:24;14.10;99.90
19829;DHT22;10075;50.924;4.396;2023-02-15T12:59:54;14.20;99.90
19829;DHT22;10075;50.924;4.396;2023-02-15T13:02:25;14.20;99.90
19829;DHT22;10075;50.924;4.396;2023-02-15T13:04:55;14.10;99.90
19829;DHT22;10075;50.924;4.396;2023-02-15T13:07:28;14.00;99.90
19829;DHT22;10075;50.924;4.396;2023-02-15T13:09:56;14.10;99.90
19829;DHT22;10075;50.924;4.396;2023-02-15T13:12:25;14.20;99.90
19829;DHT22;10075;50.924;4.396;2023-02-15T13:14:54;14.30;99.90
19829;DHT22;10075;50.924;4.396;2023-02-15T13:17:25;14.40;99.90
19829;DHT22;10075;50.924;4.396;2023-02-15T13:19:59;14.50;99.90
19829;DHT22;10075;50.924;4.396;2023-02-15T13:22:33;14.60;99.90
19829;DHT22;10075;50.924;4.396;2023-02-15T13:25:08;14.80;99.90
19829;DHT22;10075;50.924;4.396;2023-02-15T13:27:39;14.60;99.90
19829;DHT22;10075;50.924;4.396;2023-02-15T13:30:17;14.60;99.90
19829;DHT22;10075;50.924;4.396;2023-02-15T13:32:48;14.60;99.90
19829;DHT22;10075;50.924;4.396;2023-02-15T13:35:18;14.90;99.90
19829;DHT22;10075;50.924;4.396;2023-02-15T13:38:00;15.00;99.90
19829;DHT22;10075;50.924;4.396;2023-02-15T13:40:34;15.20;99.90
19829;DHT22;10075;50.924;4.396;2023-02-15T13:43:10;15.20;99.90
19829;DHT22;10075;50.924;4.396;2023-02-15T13:45:54;15.30;99.90
19829;DHT22;10075;50.924;4.396;2023-02-15T13:48:29;15.20;99.90
19829;DHT22;10075;50.924;4.396;2023-02-15T13:51:07;15.30;99.90
19829;DHT22;10075;50.924;4.396;2023-02-15T13:53:51;15.30;99.90
19829;DHT22;10075;50.924;4.396;2023-02-15T13:56:31;15.30;99.90
19829;DHT22;10075;50.924;4.396;2023-02-15T13:59:11;15.40;99.90
19829;DHT22;10075;50.924;4.396;2023-02-15T14:01:45;15.30;99.90
19829;DHT22;10075;50.924;4.396;2023-02-15T14:04:38;15.40;99.90
19829;DHT22;10075;50.924;4.396;2023-02-15T14:07:24;15.40;99.90
19829;DHT22;10075;50.924;4.396;2023-02-15T14:10:06;15.40;99.90
19829;DHT22;10075;50.924;4.396;2023-02-15T14:12:49;15.40;99.90
19829;DHT22;10075;50.924;4.396;2023-02-15T14:15:33;15.30;99.90
19829;DHT22;10075;50.924;4.396;2023-02-15T14:18:13;15.30;99.90
19829;DHT22;10075;50.924;4.396;2023-02-15T14:20:50;15.30;99.90
19829;DHT22;10075;50.924;4.396;2023-02-15T14:23:29;15.30;99.90
19829;DHT22;10075;50.924;4.396;2023-02-15T14:26:05;15.10;99.90
19829;DHT22;10075;50.924;4.396;2023-02-15T14:28:42;15.10;99.90
19829;DHT22;10075;50.924;4.396;2023-02-15T14:31:12;15.20;99.90
19829;DHT22;10075;50.924;4.396;2023-02-15T14:33:46;15.20;99.90
19829;DHT22;10075;50.924;4.396;2023-02-15T14:36:16;15.20;99.90
19829;DHT22;10075;50.924;4.396;2023-02-15T14:38:59;15.00;99.90
19829;DHT22;10075;50.924;4.396;2023-02-15T14:41:31;14.80;99.90
19829;DHT22;10075;50.924;4.396;2023-02-15T14:44:10;14.80;99.90
19829;DHT22;10075;50.924;4.396;2023-02-15T14:46:44;14.90;99.90
19829;DHT22;10075;50.924;4.396;2023-02-15T14:49:15;15.00;99.90
19829;DHT22;10075;50.924;4.396;2023-02-15T14:51:58;15.00;99.90
19829;DHT22;10075;50.924;4.396;2023-02-15T14:54:55;15.00;99.90
19829;DHT22;10075;50.924;4.396;2023-02-15T14:57:27;15.00;99.90
19829;DHT22;10075;50.924;4.396;2023-02-15T14:59:57;15.10;99.90
19829;DHT22;10075;50.924;4.396;2023-02-15T15:02:27;15.20;99.90
19829;DHT22;10075;50.924;4.396;2023-02-15T15:05:00;15.40;99.90
19829;DHT22;10075;50.924;4.396;2023-02-15T15:07:36;15.20;99.90
19829;DHT22;10075;50.924;4.396;2023-02-15T15:10:29;15.20;99.90
19829;DHT22;10075;50.924;4.396;2023-02-15T15:12:56;15.00;99.90
19829;DHT22;10075;50.924;4.396;2023-02-15T15:15:34;15.10;99.90
19829;DHT22;10075;50.924;4.396;2023-02-15T15:18:04;15.20;99.90
19829;DHT22;10075;50.924;4.396;2023-02-15T15:20:43;15.10;99.90
19829;DHT22;10075;50.924;4.396;2023-02-15T15:23:36;15.10;99.90
19829;DHT22;10075;50.924;4.396;2023-02-15T15:26:26;15.10;99.90
19829;DHT22;10075;50.924;4.396;2023-02-15T15:28:57;15.00;99.90
19829;DHT22;10075;50.924;4.396;2023-02-15T15:31:33;15.10;99.90
19829;DHT22;10075;50.924;4.396;2023-02-15T15:37:55;15.40;99.90
19829;DHT22;10075;50.924;4.396;2023-02-15T15:40:55;15.30;99.90
19829;DHT22;10075;50.924;4.396;2023-02-15T15:46:44;15.20;99.90
19829;DHT22;10075;50.924;4.396;2023-02-15T15:49:17;15.20;99.90
19829;DHT22;10075;50.924;4.396;2023-02-15T15:51:46;14.90;99.90
19829;DHT22;10075;50.924;4.396;2023-02-15T15:54:16;14.80;99.90
19829;DHT22;10075;50.924;4.396;2023-02-15T15:56:45;14.70;99.90
19829;DHT22;10075;50.924;4.396;2023-02-15T15:59:18;14.70;99.90
19829;DHT22;10075;50.924;4.396;2023-02-15T16:01:48;14.80;99.90
19829;DHT22;10075;50.924;4.396;2023-02-15T16:04:23;14.80;99.90
19829;DHT22;10075;50.924;4.396;2023-02-15T16:06:51;14.80;99.90
19829;DHT22;10075;50.924;4.396;2023-02-15T16:09:20;14.50;99.90
19829;DHT22;10075;50.924;4.396;2023-02-15T16:11:49;14.30;99.90
19829;DHT22;10075;50.924;4.396;2023-02-15T16:14:23;14.00;99.90
19829;DHT22;10075;50.924;4.396;2023-02-15T16:16:55;14.00;99.90
19829;DHT22;10075;50.924;4.396;2023-02-15T16:19:27;13.90;99.90
19829;DHT22;10075;50.924;4.396;2023-02-15T16:21:57;13.90;99.90